createdAt,value
2023-04-10T00:00:38.465Z,65
2023-04-10T00:01:45.532Z,65
2023-04-10T00:02:52.924Z,65
2023-04-10T00:04:00.288Z,65
2023-04-10T00:05:06.531Z,65
2023-04-10T00:06:13.375Z,65
2023-04-10T00:07:20.443Z,65
2023-04-10T00:08:27.654Z,66
2023-04-10T00:09:34.711Z,66
2023-04-10T00:10:41.300Z,66
2023-04-10T00:11:48.497Z,66
2023-04-10T00:12:55.545Z,66
2023-04-10T00:14:02.589Z,66
2023-04-10T00:15:09.753Z,66
2023-04-10T00:16:16.320Z,66
2023-04-10T00:17:23.463Z,66
2023-04-10T00:18:30.511Z,66
2023-04-10T00:19:38.106Z,66
2023-04-10T00:20:44.767Z,67
2023-04-10T00:21:51.290Z,67
2023-04-10T00:21:51.357Z,67
2023-04-10T00:22:58.437Z,67
2023-04-10T00:24:05.628Z,67
2023-04-10T00:25:12.640Z,67
2023-04-10T00:26:19.730Z,67
2023-04-10T00:27:26.385Z,67
2023-04-10T00:28:33.416Z,67
2023-04-10T00:30:47.622Z,68
2023-04-10T00:31:54.310Z,68
2023-04-10T00:33:01.337Z,68
2023-04-10T00:34:08.398Z,68
2023-04-10T00:35:15.007Z,69
2023-04-10T00:35:15.586Z,69
2023-04-10T00:36:22.675Z,69
2023-04-10T00:37:29.836Z,69
2023-04-10T00:38:36.357Z,69
2023-04-10T00:39:43.401Z,69
2023-04-10T00:40:50.514Z,70
2023-04-10T00:41:57.647Z,70
2023-04-10T00:43:04.241Z,70
2023-04-10T00:43:04.748Z,70
2023-04-10T00:44:11.312Z,70
2023-04-10T00:45:18.433Z,70
2023-04-10T00:46:25.588Z,71
2023-04-10T00:47:32.701Z,71
2023-04-10T00:48:39.848Z,71
2023-04-10T00:48:39.856Z,71
2023-04-10T00:49:46.473Z,71
2023-04-10T00:50:53.404Z,71
2023-04-10T00:52:00.552Z,71
2023-04-10T00:53:07.082Z,72
2023-04-10T00:53:07.640Z,72
2023-04-10T00:54:14.835Z,72
2023-04-10T00:56:28.481Z,72
2023-04-10T00:58:42.670Z,72
2023-04-10T00:59:49.751Z,72
2023-04-10T01:02:03.226Z,72
2023-04-10T01:02:03.764Z,72
2023-04-10T01:03:10.703Z,72
2023-04-10T01:05:24.833Z,72
2023-04-10T01:06:30.828Z,72
2023-04-10T01:06:31.341Z,72
2023-04-10T01:07:38.509Z,72
2023-04-10T01:08:45.598Z,72
2023-04-10T01:10:59.309Z,73
2023-04-10T01:10:59.317Z,73
2023-04-10T01:12:06.402Z,73
2023-04-10T01:13:12.948Z,73
2023-04-10T01:14:20.543Z,73
2023-04-10T01:15:27.147Z,73
2023-04-10T01:15:27.675Z,73
2023-04-10T01:16:34.320Z,73
2023-04-10T01:17:41.438Z,73
2023-04-10T01:18:48.525Z,73
2023-04-10T01:19:55.037Z,73
2023-04-10T01:19:55.556Z,73
2023-04-10T01:21:02.664Z,73
2023-04-10T01:22:09.283Z,73
2023-04-10T01:23:15.882Z,73
2023-04-10T01:23:16.397Z,73
2023-04-10T01:24:23.459Z,73
2023-04-10T01:25:30.549Z,73
2023-04-10T01:26:37.281Z,74
2023-04-10T01:26:37.667Z,74
2023-04-10T01:27:44.240Z,74
2023-04-10T01:28:51.410Z,74
2023-04-10T01:28:51.441Z,74
2023-04-10T01:29:58.523Z,74
2023-04-10T01:31:05.634Z,74
2023-04-10T01:32:12.663Z,74
2023-04-10T01:33:19.828Z,74
2023-04-10T01:33:19.921Z,74
2023-04-10T01:34:26.445Z,74
2023-04-10T01:35:33.611Z,74
2023-04-10T01:37:47.738Z,74
2023-04-10T01:37:47.748Z,74
2023-04-10T01:44:29.390Z,74
2023-04-10T01:56:46.417Z,74
2023-04-10T02:13:30.985Z,75
2023-04-10T02:13:31.433Z,75
2023-04-10T02:15:45.150Z,75
2023-04-10T02:24:41.479Z,75
2023-04-10T02:25:48.593Z,75
2023-04-10T02:26:56.185Z,75
2023-04-10T02:33:37.266Z,75
2023-04-10T02:34:44.379Z,75
2023-04-10T02:43:40.157Z,75
2023-04-10T02:50:22.345Z,75
2023-04-10T02:51:29.402Z,75
2023-04-10T02:52:36.483Z,76
2023-04-10T02:53:43.598Z,76
2023-04-10T02:54:50.154Z,76
2023-04-10T02:55:57.349Z,76
2023-04-10T02:57:04.381Z,76
2023-04-10T02:59:18.645Z,76
2023-04-10T03:02:39.676Z,76
2023-04-10T03:03:46.058Z,76
2023-04-10T03:04:53.819Z,76
2023-04-10T03:06:00.463Z,76
2023-04-10T03:09:21.078Z,76
2023-04-10T03:10:28.080Z,76
2023-04-10T03:11:35.228Z,76
2023-04-10T03:12:42.307Z,76
2023-04-10T03:13:49.405Z,76
2023-04-10T03:14:56.538Z,76
2023-04-10T03:16:03.737Z,76
2023-04-10T03:18:17.366Z,76
2023-04-10T03:19:23.916Z,77
2023-04-10T03:19:24.400Z,77
2023-04-10T03:20:31.494Z,77
2023-04-10T03:21:38.635Z,77
2023-04-10T03:22:45.265Z,77
2023-04-10T03:23:52.639Z,77
2023-04-10T03:28:20.944Z,76
2023-04-10T03:29:27.377Z,76
2023-04-10T03:29:27.404Z,76
2023-04-10T03:30:33.943Z,76
2023-04-10T03:31:44.266Z,76
2023-04-10T03:32:48.725Z,76
2023-04-10T03:33:55.602Z,76
2023-04-10T03:35:02.371Z,76
2023-04-10T03:39:30.257Z,76
2023-04-10T03:40:37.363Z,76
2023-04-10T03:43:58.174Z,76
2023-04-10T04:08:32.461Z,76
2023-04-10T04:13:00.337Z,76
2023-04-10T04:14:07.378Z,76
2023-04-10T04:15:14.474Z,76
2023-04-10T04:16:21.624Z,76
2023-04-10T04:17:28.261Z,76
2023-04-10T04:18:35.361Z,76
2023-04-10T04:19:42.391Z,76
2023-04-10T04:20:49.499Z,76
2023-04-10T04:21:56.634Z,76
2023-04-10T04:23:03.675Z,76
2023-04-10T04:24:10.401Z,76
2023-04-10T04:25:17.500Z,76
2023-04-10T04:26:24.490Z,76
2023-04-10T04:27:31.671Z,76
2023-04-10T04:28:38.845Z,76
2023-04-10T04:30:52.408Z,76
2023-04-10T04:31:59.539Z,76
2023-04-10T04:33:06.684Z,76
2023-04-10T04:34:13.739Z,76
2023-04-10T04:35:20.303Z,76
2023-04-10T04:36:27.468Z,76
2023-04-10T04:37:34.557Z,76
2023-04-10T04:38:41.693Z,76
2023-04-10T04:42:01.893Z,76
2023-04-10T04:43:09.068Z,76
2023-04-10T04:44:16.073Z,76
2023-04-10T04:46:30.390Z,76
2023-04-10T04:47:37.550Z,76
2023-04-10T04:48:44.579Z,76
2023-04-10T04:49:51.649Z,76
2023-04-10T04:50:58.773Z,76
2023-04-10T04:52:05.360Z,76
2023-04-10T05:01:01.690Z,76
2023-04-10T05:02:08.306Z,76
2023-04-10T05:03:15.534Z,76
2023-04-10T05:04:22.737Z,76
2023-04-10T05:05:29.604Z,77
2023-04-10T05:06:36.649Z,77
2023-04-10T05:07:43.227Z,77
2023-04-10T05:08:50.348Z,77
2023-04-10T05:09:57.588Z,77
2023-04-10T05:11:04.157Z,77
2023-04-10T05:12:11.648Z,77
2023-04-10T05:13:18.310Z,77
2023-04-10T05:14:25.372Z,77
2023-04-10T05:15:32.466Z,77
2023-04-10T05:17:46.467Z,77
2023-04-10T05:17:46.709Z,77
2023-04-10T05:18:53.614Z,77
2023-04-10T05:20:00.124Z,77
2023-04-10T05:20:00.430Z,77
2023-04-10T05:22:15.469Z,77
2023-04-10T05:25:35.463Z,77
2023-04-10T05:26:42.483Z,77
2023-04-10T05:28:56.639Z,77
2023-04-10T05:30:03.260Z,77
2023-04-10T05:32:17.047Z,77
2023-04-10T05:33:24.035Z,77
2023-04-10T05:33:24.585Z,77
2023-04-10T06:33:42.563Z,78
2023-04-10T06:58:16.331Z,78
2023-04-10T07:01:37.265Z,78
2023-04-10T07:04:58.500Z,78
2023-04-10T07:06:05.803Z,78
2023-04-10T07:10:33.443Z,78
2023-04-10T07:13:54.218Z,78
2023-04-10T07:16:08.467Z,78
2023-04-10T07:19:29.739Z,78
2023-04-10T07:44:03.525Z,78
2023-04-10T07:45:10.622Z,78
2023-04-10T07:48:31.379Z,78
2023-04-10T07:51:52.235Z,78
2023-04-10T07:52:59.274Z,78
2023-04-10T07:54:06.382Z,77
2023-04-10T07:59:41.409Z,77
2023-04-10T08:03:02.506Z,77
2023-04-10T08:03:03.064Z,77
2023-04-10T08:06:23.482Z,76
2023-04-10T08:07:30.584Z,76
2023-04-10T08:18:40.112Z,76
2023-04-10T08:19:47.776Z,76
2023-04-10T08:23:19.807Z,75
2023-04-10T08:25:22.559Z,75
2023-04-10T08:26:28.808Z,75
2023-04-10T08:27:36.425Z,75
2023-04-10T08:30:57.909Z,75
2023-04-10T08:32:04.320Z,75
2023-04-10T08:33:11.400Z,75
2023-04-10T08:34:18.569Z,75
2023-04-10T08:35:25.612Z,75
2023-04-10T08:36:32.797Z,75
2023-04-10T08:37:39.352Z,75
2023-04-10T08:37:39.386Z,75
2023-04-10T08:39:53.541Z,75
2023-04-10T08:41:00.170Z,75
2023-04-10T08:44:20.902Z,75
2023-04-10T08:46:35.449Z,76
2023-04-10T08:48:49.346Z,76
2023-04-10T08:49:56.519Z,76
2023-04-10T08:51:03.524Z,76
2023-04-10T08:52:10.636Z,75
2023-04-10T08:53:17.251Z,75
2023-04-10T08:54:24.329Z,74
2023-04-10T08:56:38.573Z,74
2023-04-10T08:57:50.788Z,74
2023-04-10T08:58:52.260Z,74
2023-04-10T09:00:01.976Z,73
2023-04-10T09:01:05.956Z,73
2023-04-10T09:02:13.739Z,73
2023-04-10T09:03:20.818Z,73
2023-04-10T09:04:27.976Z,73
2023-04-10T09:05:34.364Z,72
2023-04-10T09:06:40.957Z,72
2023-04-10T09:06:41.479Z,72
2023-04-10T09:07:48.103Z,72
2023-04-10T09:08:55.222Z,72
2023-04-10T09:11:09.402Z,71
2023-04-10T09:12:16.558Z,71
2023-04-10T09:13:23.624Z,71
2023-04-10T09:14:30.768Z,70
2023-04-10T09:15:37.350Z,70
2023-04-10T09:16:44.361Z,70
2023-04-10T09:21:12.307Z,70
2023-04-10T09:22:18.914Z,70
2023-04-10T09:22:19.434Z,70
2023-04-10T09:24:35.440Z,70
2023-04-10T09:25:40.724Z,70
2023-04-10T09:26:47.309Z,71
2023-04-10T09:27:54.408Z,71
2023-04-10T09:30:08.640Z,71
2023-04-10T09:59:10.353Z,75
2023-04-10T10:40:29.067Z,76
2023-04-10T10:43:50.318Z,76
2023-04-10T10:44:58.284Z,76
2023-04-10T10:44:58.394Z,76
2023-04-10T10:46:04.553Z,76
2023-04-10T10:48:18.698Z,76
2023-04-10T10:49:25.397Z,76
2023-04-10T10:50:32.382Z,75
2023-04-10T10:51:39.545Z,75
2023-04-10T10:52:46.637Z,75
2023-04-10T11:01:44.556Z,75
2023-04-10T11:02:49.710Z,75
2023-04-10T11:03:56.818Z,75
2023-04-10T11:05:03.259Z,75
2023-04-10T11:05:03.727Z,75
2023-04-10T11:06:10.318Z,75
2023-04-10T11:07:17.464Z,75
2023-04-10T11:08:24.518Z,75
2023-04-10T11:09:31.107Z,75
2023-04-10T12:20:59.212Z,77
2023-04-10T12:32:09.163Z,79
2023-04-10T12:38:51.270Z,79
2023-04-10T12:48:55.009Z,77
2023-04-10T13:19:02.880Z,80
2023-04-10T13:26:52.575Z,81
2023-04-10T13:28:00.125Z,81
2023-04-10T14:07:04.355Z,80
2023-04-10T14:23:49.361Z,82
2023-04-10T14:25:09.416Z,82
2023-04-10T14:26:13.066Z,82
2023-04-10T14:27:12.162Z,82
2023-04-10T14:28:18.059Z,82
2023-04-10T14:29:34.824Z,81
2023-04-10T14:30:31.427Z,81
2023-04-10T14:31:57.932Z,81
2023-04-10T14:32:45.675Z,81
2023-04-10T14:33:53.028Z,81
2023-04-10T14:34:59.836Z,81
2023-04-10T14:36:05.948Z,81
2023-04-10T14:36:06.610Z,81
2023-04-10T14:37:15.405Z,81
2023-04-10T14:38:20.605Z,81
2023-04-10T14:39:27.765Z,81
2023-04-10T14:40:34.325Z,81
2023-04-10T14:41:44.678Z,81
2023-04-10T14:42:48.527Z,81
2023-04-10T14:43:55.706Z,81
2023-04-10T14:45:02.709Z,81
2023-04-10T14:46:09.292Z,81
2023-04-10T14:47:16.435Z,81
2023-04-10T14:48:23.733Z,80
2023-04-10T14:49:30.605Z,80
2023-04-10T14:50:37.791Z,80
2023-04-10T14:52:50.870Z,81
2023-04-10T14:55:05.738Z,81
2023-04-10T14:56:12.303Z,81
2023-04-10T14:57:20.341Z,81
2023-04-10T14:57:20.359Z,81
2023-04-10T14:58:27.115Z,82
2023-04-10T14:59:33.584Z,82
2023-04-10T15:01:47.775Z,82
2023-04-10T15:02:54.560Z,82
2023-04-10T15:04:01.487Z,82
2023-04-10T15:05:08.597Z,83
2023-04-10T15:06:15.660Z,83
2023-04-10T15:07:22.756Z,83
2023-04-10T15:08:29.329Z,83
2023-04-10T15:09:36.468Z,83
2023-04-10T15:11:50.605Z,82
2023-04-10T15:12:57.387Z,82
2023-04-10T15:14:04.381Z,82
2023-04-10T15:15:11.484Z,82
2023-04-10T15:16:18.686Z,82
2023-04-10T15:17:25.236Z,82
2023-04-10T15:18:32.255Z,82
2023-04-10T15:19:39.393Z,82
2023-04-10T15:20:46.502Z,83
2023-04-10T15:21:53.559Z,83
2023-04-10T15:23:00.678Z,83
2023-04-10T15:24:07.773Z,83
2023-04-10T15:25:14.399Z,83
2023-04-10T15:26:21.537Z,83
2023-04-10T15:27:28.572Z,83
2023-04-10T15:28:35.649Z,83
2023-04-10T15:29:42.212Z,82
2023-04-10T15:30:49.428Z,82
2023-04-10T15:31:56.484Z,82
2023-04-10T15:33:03.670Z,82
2023-04-10T15:34:10.685Z,82
2023-04-10T15:35:17.303Z,82
2023-04-10T15:36:24.376Z,82
2023-04-10T15:37:31.454Z,82
2023-04-10T15:38:38.577Z,82
2023-04-10T15:39:45.733Z,82
2023-04-10T15:40:52.284Z,82
2023-04-10T15:41:59.390Z,82
2023-04-10T15:43:06.539Z,82
2023-04-10T15:44:13.572Z,82
2023-04-10T15:45:20.681Z,82
2023-04-10T15:46:27.413Z,82
2023-04-10T15:47:34.495Z,81
2023-04-10T15:48:41.975Z,81
2023-04-10T15:49:48.625Z,81
2023-04-10T15:50:55.743Z,81
2023-04-10T15:52:02.317Z,81
2023-04-10T15:53:09.429Z,81
2023-04-10T15:54:16.522Z,81
2023-04-10T15:55:23.631Z,81
2023-04-10T15:56:30.767Z,82
2023-04-10T15:57:37.296Z,82
2023-04-10T15:58:44.424Z,82
2023-04-10T15:59:51.523Z,82
2023-04-10T16:00:58.649Z,82
2023-04-10T16:02:05.834Z,82
2023-04-10T16:03:12.536Z,82
2023-04-10T16:04:19.598Z,82
2023-04-10T16:05:26.630Z,82
2023-04-10T16:06:33.622Z,83
2023-04-10T16:07:40.691Z,83
2023-04-10T16:08:47.314Z,83
2023-04-10T16:09:54.459Z,83
2023-04-10T16:11:01.606Z,83
2023-04-10T16:12:08.652Z,83
2023-04-10T16:13:15.744Z,83
2023-04-10T16:14:22.896Z,83
2023-04-10T16:15:29.472Z,83
2023-04-10T16:16:36.612Z,83
2023-04-10T16:17:43.699Z,84
2023-04-10T16:18:50.704Z,84
2023-04-10T16:19:57.355Z,84
2023-04-10T16:21:04.489Z,84
2023-04-10T16:22:11.503Z,84
2023-04-10T16:23:18.664Z,84
2023-04-10T16:24:25.222Z,84
2023-04-10T16:25:32.341Z,84
2023-04-10T16:26:39.572Z,84
2023-04-10T16:27:46.560Z,85
2023-04-10T16:28:53.832Z,85
2023-04-10T16:30:00.755Z,85
2023-04-10T16:31:07.441Z,85
2023-04-10T16:32:14.426Z,85
2023-04-10T16:33:21.520Z,85
2023-04-10T16:34:28.780Z,85
2023-04-10T16:35:35.867Z,85
2023-04-10T16:36:42.425Z,85
2023-04-10T16:37:49.482Z,85
2023-04-10T16:38:56.899Z,85
2023-04-10T16:41:10.280Z,85
2023-04-10T16:42:17.372Z,85
2023-04-10T16:43:24.875Z,85
2023-04-10T16:44:31.568Z,85
2023-04-10T16:45:38.876Z,85
2023-04-10T16:46:45.373Z,85
2023-04-10T16:47:52.423Z,85
2023-04-10T16:48:59.430Z,85
2023-04-10T16:50:06.582Z,85
2023-04-10T16:51:13.681Z,85
2023-04-10T16:52:20.264Z,85
2023-04-10T16:53:27.419Z,85
2023-04-10T16:54:34.434Z,85
2023-04-10T16:55:41.687Z,85
2023-04-10T16:56:48.730Z,85
2023-04-10T16:57:55.798Z,85
2023-04-10T16:59:02.400Z,85
2023-04-10T17:00:09.496Z,85
2023-04-10T17:01:16.667Z,85
2023-04-10T17:02:23.902Z,85
2023-04-10T17:03:30.310Z,85
2023-04-10T17:04:37.418Z,85
2023-04-10T17:05:44.626Z,85
2023-04-10T17:06:51.559Z,85
2023-04-10T17:07:58.830Z,85
2023-04-10T17:09:05.241Z,85
2023-04-10T17:10:12.404Z,86
2023-04-10T17:11:19.683Z,86
2023-04-10T17:12:26.704Z,86
2023-04-10T17:13:33.739Z,86
2023-04-10T17:14:40.310Z,86
2023-04-10T17:15:47.501Z,86
2023-04-10T17:16:53.993Z,86
2023-04-10T17:18:01.712Z,86
2023-04-10T17:19:08.715Z,86
2023-04-10T17:20:15.849Z,86
2023-04-10T17:22:29.682Z,86
2023-04-10T17:23:36.629Z,86
2023-04-10T17:24:43.704Z,86
2023-04-10T17:25:50.303Z,86
2023-04-10T17:26:57.457Z,86
2023-04-10T17:29:11.664Z,86
2023-04-10T17:30:18.839Z,86
2023-04-10T17:32:32.502Z,86
2023-04-10T17:33:39.575Z,86
2023-04-10T17:34:46.652Z,86
2023-04-10T17:54:52.546Z,86
2023-04-10T17:55:59.591Z,86
2023-04-10T17:57:06.692Z,86
2023-04-10T17:58:13.246Z,86
2023-04-10T17:59:20.438Z,86
2023-04-10T18:00:27.478Z,86
2023-04-10T18:01:34.596Z,86
2023-04-10T18:03:48.835Z,87
2023-04-10T18:04:55.384Z,87
2023-04-10T18:06:02.526Z,87
2023-04-10T18:07:09.564Z,87
2023-04-10T18:08:16.723Z,87
2023-04-10T18:09:23.290Z,87
2023-04-10T18:12:44.646Z,87
2023-04-10T18:13:51.719Z,87
2023-04-10T18:29:29.653Z,86
2023-04-10T18:30:36.769Z,86
2023-04-10T18:31:44.845Z,86
2023-04-10T18:34:07.056Z,86
2023-04-10T18:37:18.374Z,85
2023-04-10T18:41:46.235Z,85
2023-04-10T18:42:53.344Z,85
2023-04-10T18:56:17.623Z,84
2023-04-10T18:57:24.645Z,84
2023-04-10T19:09:41.272Z,83
2023-04-10T19:11:55.467Z,84
2023-04-10T19:13:02.552Z,84
2023-04-10T19:14:09.693Z,84
2023-04-10T19:18:37.670Z,84
2023-04-10T19:19:44.693Z,84
2023-04-10T19:20:53.051Z,84
2023-04-10T19:21:58.346Z,84
2023-04-10T19:30:54.752Z,84
2023-04-10T19:32:01.240Z,84
2023-04-10T19:33:08.424Z,84
2023-04-10T19:34:15.493Z,84
2023-04-10T19:35:22.629Z,84
2023-04-10T19:36:29.716Z,84
2023-04-10T19:37:36.292Z,84
2023-04-10T19:38:43.382Z,84
2023-04-10T19:39:50.492Z,84
2023-04-10T19:40:57.611Z,84
2023-04-10T19:42:04.744Z,84
2023-04-10T19:43:11.790Z,84
2023-04-10T19:44:18.399Z,84
2023-04-10T19:45:25.590Z,84
2023-04-10T19:46:32.649Z,84
2023-04-10T19:47:39.793Z,84
2023-04-10T19:48:46.286Z,84
2023-04-10T19:49:53.364Z,84
2023-04-10T19:51:00.576Z,84
2023-04-10T19:52:07.634Z,84
2023-04-10T19:53:14.736Z,84
2023-04-10T19:54:21.266Z,85
2023-04-10T19:55:28.499Z,84
2023-04-10T19:56:35.498Z,85
2023-04-10T19:57:42.621Z,85
2023-04-10T19:58:49.749Z,85
2023-04-10T19:59:56.430Z,85
2023-04-10T20:01:03.403Z,85
2023-04-10T20:02:10.573Z,85
2023-04-10T20:03:17.794Z,85
2023-04-10T20:05:31.516Z,85
2023-04-10T20:07:45.590Z,85
2023-04-10T20:08:52.475Z,85
2023-04-10T20:08:52.897Z,85
2023-04-10T20:09:59.221Z,85
2023-04-10T20:13:20.507Z,85
2023-04-10T20:14:27.138Z,85
2023-04-10T20:15:34.789Z,85
2023-04-10T20:16:41.415Z,85
2023-04-10T20:17:48.456Z,85
2023-04-10T20:18:55.751Z,85
2023-04-10T20:20:02.672Z,85
2023-04-10T20:21:09.798Z,85
2023-04-10T20:22:16.385Z,85
2023-04-10T20:23:23.431Z,85
2023-04-10T20:24:30.592Z,85
2023-04-10T20:25:37.670Z,85
2023-04-10T20:26:44.770Z,85
2023-04-10T20:27:51.329Z,85
2023-04-10T20:28:58.147Z,85
2023-04-10T20:30:05.608Z,85
2023-04-10T20:32:19.803Z,85
2023-04-10T20:39:01.372Z,85
2023-04-10T20:41:15.599Z,85
2023-04-10T20:42:22.154Z,85
2023-04-10T20:43:29.329Z,85
2023-04-10T20:43:29.355Z,85
2023-04-10T20:44:36.358Z,85
2023-04-10T20:45:43.496Z,85
2023-04-10T20:46:50.608Z,85
2023-04-10T20:49:04.797Z,85
2023-04-10T20:50:12.887Z,85
2023-04-10T20:51:18.498Z,85
2023-04-10T20:52:25.610Z,85
2023-04-10T20:53:32.639Z,85
2023-04-10T20:54:39.811Z,86
2023-04-10T20:55:46.469Z,86
2023-04-10T20:56:53.509Z,86
2023-04-10T20:58:00.616Z,86
2023-04-10T20:59:07.826Z,86
2023-04-10T21:00:14.834Z,86
2023-04-10T21:01:21.395Z,86
2023-04-10T21:02:28.661Z,86
2023-04-10T21:03:35.685Z,86
2023-04-10T21:04:42.730Z,86
2023-04-10T21:05:50.844Z,86
2023-04-10T21:06:56.477Z,86
2023-04-10T21:08:03.534Z,87
2023-04-10T21:16:59.469Z,87
2023-04-10T21:18:06.492Z,87
2023-04-10T21:19:13.568Z,87
2023-04-10T21:20:20.636Z,87
2023-04-10T21:23:41.505Z,87
2023-04-10T21:24:48.638Z,86
2023-04-10T21:27:02.241Z,86
2023-04-10T21:28:09.311Z,86
2023-04-10T21:30:23.575Z,86
2023-04-10T21:31:30.635Z,86
2023-04-10T21:34:51.444Z,86
2023-04-10T21:35:58.624Z,86
2023-04-10T21:37:05.670Z,85
2023-04-10T21:39:19.304Z,85
2023-04-10T21:39:19.343Z,85
2023-04-10T21:40:26.497Z,85
2023-04-10T21:42:40.623Z,85
2023-04-10T21:43:47.777Z,85
2023-04-10T21:44:54.361Z,85
2023-04-10T21:46:02.890Z,85
2023-04-10T21:47:08.585Z,85
2023-04-10T21:49:22.744Z,85
2023-04-10T21:50:29.458Z,85
2023-04-10T21:51:36.608Z,85
2023-04-10T21:53:50.686Z,86
2023-04-10T21:54:57.823Z,86
2023-04-10T21:56:04.374Z,86
2023-04-10T21:57:11.477Z,86
2023-04-10T21:58:18.619Z,86
2023-04-10T21:59:25.719Z,86
2023-04-10T22:00:32.781Z,86
2023-04-10T22:01:39.436Z,86
2023-04-10T22:02:46.670Z,86
2023-04-10T22:03:53.688Z,86
2023-04-10T22:05:00.664Z,86
2023-04-10T22:07:14.422Z,86
2023-04-10T22:08:21.466Z,86
2023-04-10T22:09:28.567Z,86
2023-04-10T22:10:35.173Z,86
2023-04-10T22:11:44.949Z,86
2023-04-10T22:12:49.674Z,86
2023-04-10T22:13:58.267Z,86
2023-04-10T22:15:03.596Z,86
2023-04-10T22:16:10.946Z,86
2023-04-10T22:17:17.357Z,86
2023-04-10T22:18:24.523Z,86
2023-04-10T22:19:31.488Z,86
2023-04-10T22:20:38.588Z,86
2023-04-10T22:21:45.765Z,86
2023-04-10T22:22:52.285Z,86
2023-04-10T22:23:59.403Z,86
2023-04-10T22:25:06.515Z,86
2023-04-10T22:26:13.620Z,86
2023-04-10T22:27:20.736Z,86
2023-04-10T22:28:27.349Z,86
2023-04-10T22:29:34.366Z,86
2023-04-10T22:30:41.574Z,86
2023-04-10T22:31:48.695Z,86
2023-04-10T22:32:55.782Z,86
2023-04-10T22:34:02.331Z,86
2023-04-10T22:35:09.421Z,86
2023-04-10T22:37:23.670Z,86
2023-04-10T22:38:30.811Z,86
2023-04-10T22:39:37.322Z,86
2023-04-10T22:40:44.400Z,87
2023-04-10T22:41:51.535Z,87
2023-04-10T22:42:58.685Z,87
2023-04-10T22:44:05.795Z,87
2023-04-10T22:45:12.285Z,87
2023-04-10T22:46:19.575Z,87
2023-04-10T22:47:26.572Z,87
2023-04-10T22:48:33.642Z,87
2023-04-10T22:49:40.720Z,87
2023-04-10T22:50:47.321Z,87
2023-04-10T22:51:54.449Z,87
2023-04-10T22:53:01.529Z,87
2023-04-10T22:54:08.699Z,87
2023-04-10T22:55:15.793Z,87
2023-04-10T22:56:22.401Z,87
2023-04-10T22:57:29.460Z,87
2023-04-10T22:58:36.582Z,87
2023-04-10T22:59:43.665Z,87
2023-04-10T23:00:50.732Z,87
2023-04-10T23:01:57.429Z,87
2023-04-10T23:03:04.695Z,87
2023-04-10T23:04:11.614Z,87
2023-04-10T23:05:18.656Z,87
2023-04-10T23:06:25.842Z,87
2023-04-10T23:07:32.342Z,87
2023-04-10T23:08:39.448Z,87
2023-04-10T23:10:53.689Z,87
2023-04-10T23:12:00.730Z,87
2023-04-10T23:13:07.424Z,87
2023-04-10T23:14:14.593Z,87
2023-04-10T23:15:21.575Z,88
2023-04-10T23:16:28.788Z,88
2023-04-10T23:17:35.816Z,88
2023-04-10T23:18:42.377Z,88
2023-04-10T23:19:49.475Z,88
2023-04-10T23:20:56.573Z,87
2023-04-10T23:22:03.686Z,87
2023-04-10T23:23:10.750Z,87
2023-04-10T23:24:17.431Z,87
2023-04-10T23:25:24.476Z,87
2023-04-10T23:26:31.627Z,87
2023-04-10T23:27:38.718Z,87
2023-04-10T23:28:45.824Z,87
2023-04-10T23:29:52.420Z,87
2023-04-10T23:30:59.538Z,87
2023-04-10T23:32:06.640Z,87
2023-04-10T23:33:13.661Z,87
2023-04-10T23:34:20.876Z,87
2023-04-10T23:35:27.456Z,87
2023-04-10T23:36:34.556Z,87
2023-04-10T23:37:41.600Z,87
2023-04-10T23:38:48.743Z,87
2023-04-10T23:41:02.409Z,87
2023-04-10T23:42:09.547Z,87
2023-04-10T23:43:16.646Z,86
2023-04-10T23:44:23.710Z,86
2023-04-10T23:45:30.297Z,86
2023-04-10T23:46:37.504Z,86
2023-04-10T23:47:44.507Z,86
2023-04-10T23:48:51.862Z,86
2023-04-10T23:49:58.748Z,86
2023-04-10T23:51:05.422Z,86
2023-04-10T23:52:12.401Z,86
2023-04-10T23:53:19.525Z,86
2023-04-10T23:54:26.640Z,86
2023-04-10T23:55:33.687Z,85
2023-04-10T23:56:40.330Z,85
2023-04-10T23:57:47.406Z,85
2023-04-10T23:58:54.629Z,85
